createdAt,value
2023-01-30T00:01:15.782Z,1.30
2023-01-30T00:03:42.227Z,2.10
2023-01-30T00:06:08.770Z,1.27
2023-01-30T00:08:35.267Z,1.55
2023-01-30T00:11:07.004Z,1.35
2023-01-30T00:13:34.151Z,1.50
2023-01-30T00:16:01.210Z,1.40
2023-01-30T00:18:28.042Z,1.23
2023-01-30T00:20:59.685Z,1.25
2023-01-30T00:23:27.954Z,1.50
2023-01-30T00:25:55.678Z,1.60
2023-01-30T00:28:22.789Z,1.50
2023-01-30T00:30:50.826Z,1.30
2023-01-30T00:33:18.569Z,1.25
2023-01-30T00:35:46.937Z,1.30
2023-01-30T00:38:14.015Z,1.10
2023-01-30T00:40:41.306Z,0.82
2023-01-30T00:43:29.141Z,1.02
2023-01-30T00:46:14.496Z,1.30
2023-01-30T00:48:40.964Z,0.95
2023-01-30T00:51:08.297Z,0.67
2023-01-30T00:53:35.074Z,0.80
2023-01-30T00:56:01.806Z,0.90
2023-01-30T00:58:28.448Z,0.93
2023-01-30T01:00:56.149Z,1.10
2023-01-30T01:03:23.048Z,0.80
2023-01-30T01:05:49.574Z,1.10
2023-01-30T01:08:16.130Z,0.70
2023-01-30T01:10:42.691Z,1.02
2023-01-30T01:13:10.704Z,0.80
2023-01-30T01:15:37.619Z,0.70
2023-01-30T01:18:04.181Z,1.15
2023-01-30T01:20:30.743Z,0.80
2023-01-30T01:22:57.721Z,0.70
2023-01-30T01:25:25.308Z,0.95
2023-01-30T01:27:51.910Z,0.90
2023-01-30T01:30:18.785Z,0.95
2023-01-30T01:32:45.451Z,1.23
2023-01-30T01:35:12.226Z,0.75
2023-01-30T01:37:38.748Z,0.80
2023-01-30T01:40:24.966Z,0.67
2023-01-30T01:42:51.846Z,0.70
2023-01-30T01:45:22.096Z,0.65
2023-01-30T01:48:04.219Z,0.90
2023-01-30T01:50:48.377Z,1.52
2023-01-30T01:53:19.306Z,1.00
2023-01-30T01:55:50.129Z,0.75
2023-01-30T01:58:32.036Z,0.80
2023-01-30T02:01:00.065Z,0.98
2023-01-30T02:03:30.331Z,1.10
2023-01-30T02:06:01.291Z,0.63
2023-01-30T02:08:34.898Z,0.73
2023-01-30T02:11:22.807Z,0.80
2023-01-30T02:13:50.946Z,0.77
2023-01-30T02:16:17.995Z,1.15
2023-01-30T02:18:46.981Z,1.00
2023-01-30T02:22:01.315Z,0.80
2023-01-30T02:24:51.310Z,1.45
2023-01-30T02:27:41.589Z,0.82
2023-01-30T02:30:43.807Z,0.57
2023-01-30T02:33:17.108Z,1.23
2023-01-30T02:36:00.346Z,0.70
2023-01-30T02:38:41.559Z,1.35
2023-01-30T02:41:22.883Z,0.90
2023-01-30T02:44:20.467Z,1.20
2023-01-30T02:47:19.205Z,0.87
2023-01-30T02:49:58.643Z,1.00
2023-01-30T02:52:26.976Z,0.88
2023-01-30T02:54:53.468Z,0.77
2023-01-30T02:57:24.853Z,0.80
2023-01-30T02:59:58.861Z,0.90
2023-01-30T03:02:25.419Z,0.70
2023-01-30T03:05:10.402Z,1.38
2023-01-30T03:08:04.723Z,0.95
2023-01-30T03:10:46.381Z,0.63
2023-01-30T03:13:38.164Z,0.80
2023-01-30T03:16:17.879Z,0.80
2023-01-30T03:18:46.377Z,0.93
2023-01-30T03:21:13.164Z,1.65
2023-01-30T03:23:39.740Z,0.90
2023-01-30T03:26:11.312Z,0.87
2023-01-30T03:28:37.963Z,0.55
2023-01-30T03:31:04.907Z,0.82
2023-01-30T03:33:31.504Z,0.88
2023-01-30T03:35:58.062Z,1.05
2023-01-30T03:38:24.667Z,0.70
2023-01-30T03:40:51.231Z,0.80
2023-01-30T03:43:17.755Z,0.45
2023-01-30T03:45:44.353Z,1.00
2023-01-30T03:48:10.816Z,0.90
2023-01-30T03:50:37.364Z,0.93
2023-01-30T03:53:03.903Z,1.10
2023-01-30T03:55:30.449Z,1.08
2023-01-30T03:57:57.951Z,1.48
2023-01-30T04:00:24.555Z,1.30
2023-01-30T04:02:51.380Z,0.87
2023-01-30T04:05:18.483Z,1.05
2023-01-30T04:07:45.303Z,0.98
2023-01-30T04:10:15.338Z,1.10
2023-01-30T04:12:44.885Z,1.00
2023-01-30T04:15:11.896Z,1.60
2023-01-30T04:17:38.618Z,1.17
2023-01-30T04:20:05.887Z,0.98
2023-01-30T04:22:32.559Z,0.65
2023-01-30T04:24:59.110Z,1.10
2023-01-30T04:27:25.622Z,1.27
2023-01-30T04:29:52.120Z,1.00
2023-01-30T04:32:18.610Z,1.00
2023-01-30T04:34:45.573Z,0.90
2023-01-30T04:37:12.796Z,0.90
2023-01-30T04:39:39.585Z,1.07
2023-01-30T04:42:06.065Z,0.85
2023-01-30T04:44:32.559Z,1.35
2023-01-30T04:46:59.145Z,1.02
2023-01-30T04:49:25.642Z,1.50
2023-01-30T04:51:52.152Z,0.90
2023-01-30T04:54:18.791Z,0.80
2023-01-30T04:56:45.263Z,1.40
2023-01-30T04:59:11.731Z,1.40
2023-01-30T05:01:39.257Z,1.25
2023-01-30T05:04:07.334Z,1.30
2023-01-30T05:06:35.138Z,1.42
2023-01-30T05:09:01.757Z,1.35
2023-01-30T05:11:30.034Z,1.25
2023-01-30T05:13:56.527Z,1.10
2023-01-30T05:16:23.910Z,1.10
2023-01-30T05:18:51.179Z,1.08
2023-01-30T05:21:30.853Z,1.70
2023-01-30T05:23:57.609Z,1.25
2023-01-30T05:26:25.183Z,1.48
2023-01-30T05:28:57.537Z,1.33
2023-01-30T05:31:24.409Z,0.90
2023-01-30T05:33:52.596Z,1.23
2023-01-30T05:36:21.194Z,1.30
2023-01-30T05:38:47.737Z,1.10
2023-01-30T05:41:16.398Z,0.70
2023-01-30T05:43:43.115Z,1.08
2023-01-30T05:46:12.454Z,0.80
2023-01-30T05:48:39.413Z,1.10
2023-01-30T05:51:06.290Z,1.40
2023-01-30T05:53:37.306Z,0.83
2023-01-30T05:56:05.690Z,0.60
2023-01-30T05:58:33.089Z,1.10
2023-01-30T06:01:05.361Z,0.80
2023-01-30T06:03:32.402Z,0.55
2023-01-30T06:05:58.910Z,0.70
2023-01-30T06:08:25.462Z,0.50
2023-01-30T06:10:52.159Z,0.63
2023-01-30T06:13:18.793Z,0.80
2023-01-30T06:15:45.568Z,0.80
2023-01-30T06:18:12.479Z,0.70
2023-01-30T06:20:39.132Z,0.50
2023-01-30T06:23:05.592Z,0.60
2023-01-30T06:25:32.111Z,0.50
2023-01-30T06:27:58.634Z,0.32
2023-01-30T06:30:25.645Z,0.70
2023-01-30T06:32:52.275Z,0.65
2023-01-30T06:35:19.480Z,0.85
2023-01-30T06:37:46.481Z,0.50
2023-01-30T06:40:13.463Z,0.77
2023-01-30T06:42:47.809Z,0.37
2023-01-30T06:45:17.167Z,0.57
2023-01-30T06:47:54.949Z,0.65
2023-01-30T06:50:26.979Z,0.70
2023-01-30T06:52:54.961Z,1.08
2023-01-30T06:55:24.006Z,0.83
2023-01-30T06:57:50.873Z,0.60
2023-01-30T07:00:20.040Z,0.90
2023-01-30T07:02:47.560Z,0.60
2023-01-30T07:05:14.575Z,1.38
2023-01-30T07:07:41.211Z,0.47
2023-01-30T07:10:09.320Z,0.68
2023-01-30T07:12:36.926Z,0.80
2023-01-30T07:15:04.854Z,0.63
2023-01-30T07:17:31.614Z,0.68
2023-01-30T07:19:58.280Z,0.50
2023-01-30T07:22:24.891Z,0.65
2023-01-30T07:24:51.470Z,0.95
2023-01-30T07:27:19.794Z,0.85
2023-01-30T07:29:46.468Z,0.93
2023-01-30T07:32:18.639Z,0.87
2023-01-30T07:34:46.430Z,0.90
2023-01-30T07:37:13.331Z,0.70
2023-01-30T07:39:40.057Z,0.50
2023-01-30T07:42:07.044Z,0.47
2023-01-30T07:44:36.468Z,1.00
2023-01-30T07:47:03.498Z,0.55
2023-01-30T07:49:30.299Z,1.00
2023-01-30T07:51:57.048Z,0.55
2023-01-30T07:54:23.801Z,0.68
2023-01-30T07:56:54.317Z,0.67
2023-01-30T07:59:23.762Z,0.75
2023-01-30T08:01:50.491Z,0.90
2023-01-30T08:04:17.313Z,0.60
2023-01-30T08:06:44.030Z,0.57
2023-01-30T08:09:10.814Z,0.63
2023-01-30T08:11:37.382Z,0.70
2023-01-30T08:14:04.130Z,1.23
2023-01-30T08:16:32.416Z,0.80
2023-01-30T08:18:59.294Z,0.65
2023-01-30T08:21:26.045Z,1.10
2023-01-30T08:23:52.655Z,0.98
2023-01-30T08:26:19.271Z,0.98
2023-01-30T08:28:45.969Z,0.85
2023-01-30T08:31:14.265Z,1.05
2023-01-30T08:33:40.975Z,0.80
2023-01-30T08:36:08.076Z,0.57
2023-01-30T08:38:34.844Z,1.42
2023-01-30T08:41:04.869Z,1.05
2023-01-30T08:43:31.346Z,0.98
2023-01-30T08:45:58.087Z,0.90
2023-01-30T08:48:24.786Z,1.45
2023-01-30T08:50:54.411Z,2.35
2023-01-30T08:53:21.971Z,2.80
2023-01-30T08:55:53.307Z,2.60
2023-01-30T08:58:23.473Z,3.47
2023-01-30T09:00:51.269Z,3.17
2023-01-30T09:03:18.677Z,3.33
2023-01-30T09:05:46.482Z,3.33
2023-01-30T09:08:16.042Z,2.83
2023-01-30T09:10:42.660Z,3.37
2023-01-30T09:13:10.145Z,2.90
2023-01-30T09:15:36.949Z,2.30
2023-01-30T09:18:05.142Z,1.77
2023-01-30T09:20:31.928Z,1.80
2023-01-30T09:22:58.461Z,1.20
2023-01-30T09:25:25.015Z,1.52
2023-01-30T09:27:51.655Z,1.25
2023-01-30T09:30:19.331Z,1.63
2023-01-30T09:32:46.291Z,1.67
2023-01-30T09:35:13.215Z,1.10
2023-01-30T09:37:47.663Z,1.30
2023-01-30T09:40:24.221Z,0.95
2023-01-30T09:43:11.324Z,0.90
2023-01-30T09:45:59.361Z,1.27
2023-01-30T09:48:32.228Z,1.10
2023-01-30T09:51:40.486Z,1.23
2023-01-30T09:54:15.420Z,1.20
2023-01-30T09:56:42.039Z,1.05
2023-01-30T09:59:19.931Z,1.30
2023-01-30T10:01:56.423Z,0.60
2023-01-30T10:04:36.547Z,1.00
2023-01-30T10:07:03.407Z,0.85
2023-01-30T10:09:44.981Z,1.25
2023-01-30T10:12:19.821Z,1.10
2023-01-30T10:14:52.138Z,0.50
2023-01-30T10:17:18.886Z,1.10
2023-01-30T10:19:48.416Z,1.60
2023-01-30T10:22:17.903Z,1.40
2023-01-30T10:25:19.058Z,1.02
2023-01-30T10:27:53.818Z,1.33
2023-01-30T10:30:21.298Z,1.05
2023-01-30T10:33:03.084Z,1.23
2023-01-30T10:35:37.677Z,0.40
2023-01-30T10:38:20.416Z,0.85
2023-01-30T10:40:59.128Z,1.43
2023-01-30T10:43:41.413Z,1.02
2023-01-30T10:46:29.824Z,1.00
2023-01-30T10:48:56.452Z,0.73
2023-01-30T10:51:31.930Z,0.95
2023-01-30T10:54:04.512Z,1.40
2023-01-30T10:56:36.573Z,1.23
2023-01-30T10:59:06.303Z,1.58
2023-01-30T11:01:41.835Z,0.90
2023-01-30T11:04:23.733Z,0.98
2023-01-30T11:06:52.289Z,1.00
2023-01-30T11:09:21.554Z,1.00
2023-01-30T11:11:52.374Z,0.85
2023-01-30T11:14:20.046Z,1.00
2023-01-30T11:16:50.205Z,1.10
2023-01-30T11:19:21.861Z,0.70
2023-01-30T11:21:54.766Z,1.38
2023-01-30T11:24:38.161Z,0.82
2023-01-30T11:27:30.377Z,0.63
2023-01-30T11:30:17.750Z,0.82
2023-01-30T11:32:46.398Z,1.20
2023-01-30T11:35:15.840Z,0.77
2023-01-30T11:37:44.877Z,1.13
2023-01-30T11:40:17.638Z,0.98
2023-01-30T11:42:46.520Z,0.70
2023-01-30T11:45:17.627Z,0.70
2023-01-30T11:47:59.269Z,0.73
2023-01-30T11:50:44.609Z,1.17
2023-01-30T11:53:32.360Z,0.85
2023-01-30T11:56:08.362Z,1.08
2023-01-30T11:58:39.133Z,0.70
2023-01-30T12:01:09.433Z,1.30
2023-01-30T12:03:44.584Z,1.55
2023-01-30T12:06:11.659Z,1.00
2023-01-30T12:08:42.826Z,1.75
2023-01-30T12:11:26.519Z,0.87
2023-01-30T12:13:56.423Z,0.82
2023-01-30T12:16:32.555Z,0.80
2023-01-30T12:19:04.630Z,0.55
2023-01-30T12:21:55.946Z,1.40
2023-01-30T12:24:28.653Z,1.53
2023-01-30T12:27:25.627Z,1.08
2023-01-30T12:30:05.158Z,0.75
2023-01-30T12:32:35.252Z,1.20
2023-01-30T12:35:15.409Z,1.20
2023-01-30T12:38:15.548Z,0.97
2023-01-30T12:41:08.021Z,1.33
2023-01-30T12:43:56.539Z,0.80
2023-01-30T12:46:23.173Z,0.52
2023-01-30T12:49:10.685Z,1.10
2023-01-30T12:52:02.653Z,1.17
2023-01-30T12:54:41.743Z,0.85
2023-01-30T12:57:38.901Z,1.13
2023-01-30T13:00:33.308Z,0.47
2023-01-30T13:03:35.539Z,1.13
2023-01-30T13:06:18.979Z,1.00
2023-01-30T13:09:07.694Z,1.00
2023-01-30T13:12:17.067Z,1.13
2023-01-30T13:14:46.661Z,0.80
2023-01-30T13:17:16.252Z,1.42
2023-01-30T13:20:13.725Z,0.57
2023-01-30T13:22:50.558Z,0.90
2023-01-30T13:25:28.999Z,1.30
2023-01-30T13:28:02.477Z,1.25
2023-01-30T13:30:33.066Z,0.88
2023-01-30T13:33:09.007Z,2.70
2023-01-30T13:35:50.250Z,1.00
2023-01-30T13:38:24.795Z,1.23
2023-01-30T13:40:55.415Z,1.23
2023-01-30T13:43:45.675Z,0.80
2023-01-30T13:46:18.540Z,0.90
2023-01-30T13:49:03.963Z,1.65
2023-01-30T13:51:41.788Z,1.08
2023-01-30T13:54:20.595Z,1.40
2023-01-30T13:57:18.780Z,1.00
2023-01-30T13:59:51.358Z,0.90
2023-01-30T14:02:19.565Z,1.00
2023-01-30T14:04:52.015Z,1.50
2023-01-30T14:07:24.291Z,1.23
2023-01-30T14:10:12.302Z,1.10
2023-01-30T14:12:52.531Z,1.20
2023-01-30T14:15:29.009Z,1.30
2023-01-30T14:18:00.977Z,1.00
2023-01-30T14:20:30.518Z,1.48
2023-01-30T14:23:23.539Z,0.82
2023-01-30T14:25:58.993Z,1.83
2023-01-30T14:28:28.763Z,0.98
2023-01-30T14:31:00.913Z,1.00
2023-01-30T14:33:33.156Z,1.40
2023-01-30T14:36:09.195Z,1.08
2023-01-30T14:38:38.546Z,0.53
2023-01-30T14:41:07.408Z,0.90
2023-01-30T14:43:44.043Z,1.50
2023-01-30T14:46:20.908Z,0.85
2023-01-30T14:49:05.602Z,1.38
2023-01-30T14:51:49.072Z,0.90
2023-01-30T14:54:18.311Z,1.05
2023-01-30T14:57:01.302Z,1.30
2023-01-30T14:59:34.926Z,1.20
2023-01-30T15:02:13.268Z,1.58
2023-01-30T15:04:46.002Z,1.30
2023-01-30T15:07:34.472Z,0.80
2023-01-30T15:10:06.922Z,1.50
2023-01-30T15:12:36.458Z,1.10
2023-01-30T15:15:24.233Z,1.13
2023-01-30T15:18:23.194Z,1.10
2023-01-30T15:21:07.610Z,0.82
2023-01-30T15:23:54.874Z,1.05
2023-01-30T15:26:34.996Z,1.13
2023-01-30T15:29:07.960Z,0.90
2023-01-30T15:31:34.939Z,0.97
2023-01-30T15:34:01.559Z,1.05
2023-01-30T15:36:32.222Z,1.90
2023-01-30T15:39:16.369Z,1.48
2023-01-30T15:41:43.417Z,1.50
2023-01-30T15:44:42.746Z,1.47
2023-01-30T15:48:13.701Z,1.15
2023-01-30T15:50:51.436Z,1.35
2023-01-30T15:53:26.040Z,1.10
2023-01-30T15:55:54.628Z,1.58
2023-01-30T15:58:23.136Z,1.30
2023-01-30T16:01:00.301Z,1.40
2023-01-30T16:03:42.975Z,1.08
2023-01-30T16:06:40.558Z,1.63
2023-01-30T16:09:25.983Z,1.10
2023-01-30T16:11:54.517Z,1.50
2023-01-30T16:14:22.859Z,2.08
2023-01-30T16:17:01.442Z,2.75
2023-01-30T16:19:34.674Z,2.65
2023-01-30T16:22:05.765Z,2.13
2023-01-30T16:24:37.596Z,2.00
2023-01-30T16:27:19.370Z,2.42
2023-01-30T16:29:53.459Z,2.33
2023-01-30T16:32:30.933Z,1.60
2023-01-30T16:35:28.960Z,2.22
2023-01-30T16:38:01.982Z,2.60
2023-01-30T16:40:45.057Z,3.17
2023-01-30T16:43:22.706Z,2.38
2023-01-30T16:45:51.668Z,1.95
2023-01-30T16:48:24.737Z,2.20
2023-01-30T16:51:00.937Z,2.63
2023-01-30T16:53:30.396Z,2.08
2023-01-30T16:56:07.774Z,2.25
2023-01-30T16:58:36.944Z,1.60
2023-01-30T17:01:07.021Z,1.85
2023-01-30T17:03:47.008Z,1.83
2023-01-30T17:06:34.639Z,2.25
2023-01-30T17:09:04.928Z,2.35
2023-01-30T17:11:44.467Z,2.15
2023-01-30T17:14:22.869Z,2.92
2023-01-30T17:17:09.959Z,2.00
2023-01-30T17:19:38.100Z,2.55
2023-01-30T17:22:15.581Z,2.72
2023-01-30T17:24:46.136Z,2.45
2023-01-30T17:27:13.082Z,2.67
2023-01-30T17:29:43.913Z,3.47
2023-01-30T17:32:14.079Z,3.10
2023-01-30T17:34:43.909Z,3.60
2023-01-30T17:37:24.125Z,2.83
2023-01-30T17:39:53.596Z,5.20
2023-01-30T17:42:23.120Z,3.13
2023-01-30T17:44:49.983Z,4.10
2023-01-30T17:47:19.774Z,3.33
2023-01-30T17:49:46.940Z,3.58
2023-01-30T17:52:20.052Z,3.15
2023-01-30T17:54:46.883Z,2.97
2023-01-30T17:57:23.301Z,2.70
2023-01-30T17:59:50.073Z,2.78
2023-01-30T18:02:17.967Z,2.97
2023-01-30T18:04:48.016Z,2.70
2023-01-30T18:07:26.878Z,2.93
2023-01-30T18:09:53.626Z,2.67
2023-01-30T18:12:33.064Z,2.60
2023-01-30T18:15:02.592Z,2.50
2023-01-30T18:17:29.700Z,3.50
2023-01-30T18:20:01.200Z,4.17
2023-01-30T18:22:33.047Z,5.88
2023-01-30T18:25:05.524Z,5.32
2023-01-30T18:27:44.331Z,5.38
2023-01-30T18:30:15.783Z,5.68
2023-01-30T18:32:52.434Z,4.77
2023-01-30T18:35:23.549Z,4.80
2023-01-30T18:37:50.733Z,4.82
2023-01-30T18:40:22.932Z,3.20
2023-01-30T18:42:58.414Z,3.75
2023-01-30T18:45:31.252Z,4.10
2023-01-30T18:48:00.491Z,3.70
2023-01-30T18:50:27.878Z,3.22
2023-01-30T18:53:29.865Z,3.35
2023-01-30T18:56:09.068Z,3.60
2023-01-30T18:58:36.501Z,4.97
2023-01-30T19:01:14.360Z,4.60
2023-01-30T19:03:43.976Z,4.10
2023-01-30T19:06:14.096Z,4.90
2023-01-30T19:08:41.886Z,4.40
2023-01-30T19:11:35.649Z,4.20
2023-01-30T19:14:03.786Z,4.05
2023-01-30T19:16:34.233Z,4.80
2023-01-30T19:19:01.616Z,4.35
2023-01-30T19:21:33.840Z,5.03
2023-01-30T19:24:18.320Z,4.87
2023-01-30T19:26:48.550Z,5.28
2023-01-30T19:29:15.775Z,6.00
2023-01-30T19:31:43.008Z,4.60
2023-01-30T19:34:11.723Z,5.80
2023-01-30T19:36:38.823Z,6.27
2023-01-30T19:39:09.767Z,4.43
2023-01-30T19:41:41.359Z,5.35
2023-01-30T19:44:11.075Z,5.70
2023-01-30T19:46:44.226Z,7.45
2023-01-30T19:49:13.969Z,7.93
2023-01-30T19:51:42.058Z,8.02
2023-01-30T19:54:11.429Z,7.22
2023-01-30T19:56:44.634Z,8.80
2023-01-30T19:59:16.810Z,12.65
2023-01-30T20:01:52.723Z,13.50
2023-01-30T20:04:26.448Z,8.50
2023-01-30T20:06:55.117Z,7.20
2023-01-30T20:09:22.087Z,13.00
2023-01-30T20:11:49.163Z,12.23
2023-01-30T20:14:18.844Z,10.67
2023-01-30T20:16:51.216Z,8.63
2023-01-30T20:19:18.835Z,10.20
2023-01-30T20:21:50.157Z,15.20
2023-01-30T20:24:17.069Z,13.50
2023-01-30T20:26:48.486Z,12.63
2023-01-30T20:29:19.787Z,11.35
2023-01-30T20:31:46.995Z,8.55
2023-01-30T20:34:33.188Z,10.38
2023-01-30T20:39:47.873Z,8.40
2023-01-30T20:45:07.702Z,8.40
2023-01-30T20:47:34.925Z,7.18
2023-01-30T20:50:32.907Z,8.32
2023-01-30T20:53:04.277Z,9.57
2023-01-30T20:55:30.974Z,8.32
2023-01-30T20:57:59.637Z,6.60
2023-01-30T21:00:38.192Z,6.60
2023-01-30T21:03:04.950Z,5.63
2023-01-30T21:05:34.897Z,5.77
2023-01-30T21:08:01.585Z,5.88
2023-01-30T21:10:30.559Z,5.38
2023-01-30T21:12:57.411Z,5.38
2023-01-30T21:15:24.101Z,6.30
2023-01-30T21:17:53.745Z,6.40
2023-01-30T21:20:23.439Z,5.75
2023-01-30T21:22:50.721Z,4.95
2023-01-30T21:25:19.068Z,5.05
2023-01-30T21:27:46.021Z,5.05
2023-01-30T21:31:28.940Z,4.93
2023-01-30T21:34:19.444Z,4.97
2023-01-30T21:37:06.156Z,5.30
2023-01-30T21:40:03.458Z,4.93
2023-01-30T21:42:51.537Z,5.05
2023-01-30T21:45:31.207Z,4.97
2023-01-30T21:48:05.939Z,5.30
2023-01-30T21:50:32.722Z,5.03
2023-01-30T21:53:00.018Z,5.68
2023-01-30T21:55:29.189Z,6.43
2023-01-30T21:58:05.071Z,6.43
2023-01-30T22:00:35.178Z,5.20
2023-01-30T22:03:07.111Z,5.50
2023-01-30T22:05:50.990Z,5.03
2023-01-30T22:08:22.959Z,4.72
2023-01-30T22:10:50.216Z,4.70
2023-01-30T22:13:22.756Z,5.25
2023-01-30T22:15:49.533Z,4.72
2023-01-30T22:18:16.169Z,5.20
2023-01-30T22:20:45.114Z,5.47
2023-01-30T22:23:12.010Z,4.20
2023-01-30T22:25:41.620Z,5.00
2023-01-30T22:28:10.170Z,5.03
2023-01-30T22:30:37.239Z,4.63
2023-01-30T22:33:06.040Z,4.45
2023-01-30T22:35:33.021Z,4.20
2023-01-30T22:37:59.893Z,4.57
2023-01-30T22:40:29.431Z,4.97
2023-01-30T22:42:56.262Z,5.10
2023-01-30T22:45:28.641Z,4.70
2023-01-30T22:47:59.335Z,4.10
2023-01-30T22:50:26.130Z,4.47
2023-01-30T22:52:55.077Z,4.63
2023-01-30T22:55:28.395Z,3.90
2023-01-30T22:58:00.739Z,4.25
2023-01-30T23:00:45.704Z,3.67
2023-01-30T23:03:12.321Z,3.83
2023-01-30T23:05:39.305Z,3.83
2023-01-30T23:08:06.087Z,3.47
2023-01-30T23:10:32.709Z,3.95
2023-01-30T23:13:08.536Z,4.33
2023-01-30T23:15:38.088Z,3.95
2023-01-30T23:18:23.519Z,3.75
2023-01-30T23:20:50.434Z,3.08
2023-01-30T23:23:17.464Z,4.38
2023-01-30T23:25:45.007Z,4.47
2023-01-30T23:28:11.864Z,4.10
2023-01-30T23:30:39.189Z,4.25
2023-01-30T23:33:06.332Z,4.43
2023-01-30T23:35:35.377Z,3.67
2023-01-30T23:38:19.087Z,4.23
2023-01-30T23:40:47.680Z,3.22
2023-01-30T23:43:18.720Z,4.32
2023-01-30T23:45:45.774Z,3.58
2023-01-30T23:48:12.426Z,3.70
2023-01-30T23:50:40.252Z,3.93
2023-01-30T23:53:09.083Z,3.42
2023-01-30T23:55:35.579Z,3.13
2023-01-30T23:58:02.146Z,3.20
